Schwabisch Hall Army Air Field, Germany

1:31 AM CET on February 13, 2016 (GMT +0100)
Illesheim | | Change Station
CLOSE
Current Station
Airport
Location: Illesheim,
Elevation: 1066 ft
Nearby Weather Stations

Elev 1066 ft 49.47 °N, 10.39 °E | Updated 33 minutes ago

Clear
Clear
31 °F
Feels Like 27 °F
N
4
Wind Variable Wind from ESE

Today
High -- | Low -- °F
--% Chance of Precip.
Yesterday
High -- | Low -- °F
Precip. -- in
Pressure 29.40 in
Visibility 6.2 miles
Clouds Clear
Windchill 27 °F
Dew Point 27 °F
Humidity 86%
Rainfall 0.00 in
Snow Depth Not available.
7:34 AM 5:36 PM
Waxing Crescent, 25% visible
METAR ETIK 122358Z AUTO 12003KT 9999 CLR M01/M03 A2936 RMK AO2 SLP956 T10071027 10024 21013 57010 $
Pressure 29.40 in
Visibility 6.2 miles
Clouds Clear
Windchill 27 °F
Dew Point 27 °F
Humidity 86%
Rainfall 0.00 in
Snow Depth Not available.
7:34 AM 5:36 PM
Waxing Crescent, 25% visible
METAR ETIK 122358Z AUTO 12003KT 9999 CLR M01/M03 A2936 RMK AO2 SLP956 T10071027 10024 21013 57010 $

10-Day Weather Forecast

Almanac

Astronomy

Feb. 13, 2016 Rise Set
Actual Time
Civil Twilight
Nautical Twilight
Astronomical Twilight
Moon
Length of Visible Light
Length of Day
Tomorrow will be .
, % of the Moon is Illuminated

Today's Extremes

Country Highs Country Lows

Community

WunderPhotos

Upload Photos

1,892,444 photos uploaded!

WunderBlog® & News

Nearby

Air Quality

  Air Quality AQ Index Pollutant
Not available.

Snow Depth

Station Depth Elevation

Earthquake Activity

City Distance Mag. Time & Date
Minimum magnitude displayed is 2.5.

Coastal Water Temperatures

Place Temperature

Stations

Nearby Weather Stations

Station Location Temp. Windchill Dew Point Humidity Wind Precip. Elev Updated Type